< Typhoon 199508 1995 Season Typhoon 199510 >
Typhoon 199509 (LOIS)
General InformationTrack Information on Google MapsDetailed Wind InformationList of All Images || Disaster Info.ResourceGoogle EarthGE AnimationAtom FeedGeoJSON
Detalied Best Track (Time Zone = UTC)
Year Month Day Hour Lat. Long. Pressure (hPa) Wind (kt) Class Image Chart
1995 8 24 06 17.3 116.5 1002 0 2 Image Chart
1995 8 24 12 17.1 116.1 1002 0 2 Image Chart
1995 8 24 18 16.9 116.1 1002 0 2 Image Chart
1995 8 25 00 17.1 116.1 1002 0 2 Image Chart
1995 8 25 06 17.0 116.1 1002 0 2 Image Chart
1995 8 25 12 17.2 115.9 1000 0 2 Image Chart
1995 8 25 18 17.4 115.4 998 0 2 Image Chart
1995 8 26 00 17.5 115.0 996 0 2 Image Chart
1995 8 26 06 17.6 114.3 994 35 3 Image Chart
1995 8 26 12 17.5 113.5 990 40 3 Image Chart
1995 8 26 18 17.2 112.9 985 45 3 Image Chart
1995 8 27 00 17.1 112.5 985 45 3 Image Chart
1995 8 27 06 17.4 111.9 980 50 4 Image Chart
1995 8 27 12 17.7 111.3 980 50 4 Image Chart
1995 8 27 18 18.0 110.7 980 50 4 Image Chart
1995 8 28 00 18.4 110.3 980 50 4 Image Chart
1995 8 28 06 18.5 109.5 980 50 4 Image Chart
1995 8 28 12 18.9 108.8 980 50 4 Image Chart
1995 8 28 18 19.0 108.1 980 50 4 Image Chart
1995 8 29 00 19.1 107.6 980 50 4 Image Chart
1995 8 29 06 19.2 107.1 980 50 4 Image Chart
1995 8 29 12 19.2 106.6 985 45 3 Image Chart
1995 8 29 18 19.0 105.9 985 45 3 Image Chart
1995 8 30 00 18.7 105.4 992 40 3 Image Chart
1995 8 30 06 18.7 105.0 996 35 3 Image Chart
1995 8 30 12 18.9 104.5 998 0 2 Image Chart
Japan Meteorological Agency Best Track Data | Correction Date : 1996-01-19
< Typhoon 199508 1995 Season Typhoon 199510 >

Help